sensor_id;sensor_type;location;lat;lon;timestamp;P1;P2;P0
73832;PMS7003;62179;48.444;-4.464;2022-08-24T06:51:11;3.00;2.25;1.75
73832;PMS7003;62179;48.444;-4.464;2022-08-24T06:53:38;2.75;2.75;1.75
73832;PMS7003;62179;48.444;-4.464;2022-08-24T06:56:05;1.50;1.50;1.25
73832;PMS7003;62179;48.444;-4.464;2022-08-24T06:58:31;2.00;1.50;1.00
73832;PMS7003;62179;48.444;-4.464;2022-08-24T07:01:05;2.75;1.50;0.50
73832;PMS7003;62179;48.444;-4.464;2022-08-24T07:03:57;3.00;2.25;1.50
73832;PMS7003;62179;48.444;-4.464;2022-08-24T07:06:23;1.50;1.50;0.75
73832;PMS7003;62179;48.444;-4.464;2022-08-24T07:08:49;3.00;1.25;1.00
73832;PMS7003;62179;48.444;-4.464;2022-08-24T07:11:16;4.00;2.25;1.25
73832;PMS7003;62179;48.444;-4.464;2022-08-24T07:13:45;3.00;3.00;1.25
73832;PMS7003;62179;48.444;-4.464;2022-08-24T07:16:12;3.00;3.00;1.25
73832;PMS7003;62179;48.444;-4.464;2022-08-24T07:18:38;3.75;3.50;2.50
73832;PMS7003;62179;48.444;-4.464;2022-08-24T07:21:04;5.00;4.00;2.00
73832;PMS7003;62179;48.444;-4.464;2022-08-24T07:23:30;2.25;2.25;2.25
73832;PMS7003;62179;48.444;-4.464;2022-08-24T07:25:56;5.50;4.50;2.75
73832;PMS7003;62179;48.444;-4.464;2022-08-24T07:28:29;3.25;3.25;1.25
73832;PMS7003;62179;48.444;-4.464;2022-08-24T07:30:54;1.25;1.25;1.00
73832;PMS7003;62179;48.444;-4.464;2022-08-24T07:33:20;7.75;4.25;2.50
73832;PMS7003;62179;48.444;-4.464;2022-08-24T07:35:45;4.00;1.25;1.00
73832;PMS7003;62179;48.444;-4.464;2022-08-24T07:38:11;3.25;2.25;1.25
73832;PMS7003;62179;48.444;-4.464;2022-08-24T07:40:37;3.00;3.00;2.50
73832;PMS7003;62179;48.444;-4.464;2022-08-24T07:43:02;4.00;2.75;2.00
73832;PMS7003;62179;48.444;-4.464;2022-08-24T07:45:28;2.25;2.00;1.50
73832;PMS7003;62179;48.444;-4.464;2022-08-24T07:47:55;4.00;3.00;2.00
73832;PMS7003;62179;48.444;-4.464;2022-08-24T07:50:20;3.50;3.50;2.50
73832;PMS7003;62179;48.444;-4.464;2022-08-24T07:52:46;2.75;1.00;1.00
73832;PMS7003;62179;48.444;-4.464;2022-08-24T07:55:12;5.00;4.00;3.00
73832;PMS7003;62179;48.444;-4.464;2022-08-24T07:57:39;2.00;2.00;1.75
73832;PMS7003;62179;48.444;-4.464;2022-08-24T08:00:07;2.75;2.75;1.75
73832;PMS7003;62179;48.444;-4.464;2022-08-24T08:02:35;2.00;2.00;1.75
73832;PMS7003;62179;48.444;-4.464;2022-08-24T08:05:01;3.00;2.00;1.75
73832;PMS7003;62179;48.444;-4.464;2022-08-24T08:07:27;2.75;2.75;1.75
73832;PMS7003;62179;48.444;-4.464;2022-08-24T08:09:52;2.50;2.50;1.75
73832;PMS7003;62179;48.444;-4.464;2022-08-24T08:12:22;4.50;4.50;3.25
73832;PMS7003;62179;48.444;-4.464;2022-08-24T08:14:47;4.00;4.00;3.00
73832;PMS7003;62179;48.444;-4.464;2022-08-24T08:17:13;5.00;4.00;3.00
73832;PMS7003;62179;48.444;-4.464;2022-08-24T08:19:41;7.00;6.00;4.75
73832;PMS7003;62179;48.444;-4.464;2022-08-24T08:22:08;4.75;4.00;3.75
73832;PMS7003;62179;48.444;-4.464;2022-08-24T18:31:38;0.00;0.00;0.00
73832;PMS7003;62179;48.444;-4.464;2022-08-24T18:34:03;1.50;0.00;0.00
73832;PMS7003;62179;48.444;-4.464;2022-08-24T18:36:29;0.00;0.00;0.00
73832;PMS7003;62179;48.444;-4.464;2022-08-24T18:38:55;0.00;0.00;0.00
73832;PMS7003;62179;48.444;-4.464;2022-08-24T18:41:21;0.00;0.00;0.00
73832;PMS7003;62179;48.444;-4.464;2022-08-24T18:43:53;0.00;0.00;0.00
73832;PMS7003;62179;48.444;-4.464;2022-08-24T18:46:19;0.75;0.00;0.00
73832;PMS7003;62179;48.444;-4.464;2022-08-24T18:48:45;0.00;0.00;0.00
73832;PMS7003;62179;48.444;-4.464;2022-08-24T18:51:12;1.00;1.00;0.25
73832;PMS7003;62179;48.444;-4.464;2022-08-24T18:53:42;1.00;1.00;0.00
73832;PMS7003;62179;48.444;-4.464;2022-08-24T18:56:08;1.25;1.25;1.00
73832;PMS7003;62179;48.444;-4.464;2022-08-24T18:58:34;1.25;1.25;0.75
73832;PMS7003;62179;48.444;-4.464;2022-08-24T19:01:00;1.25;0.50;0.00
73832;PMS7003;62179;48.444;-4.464;2022-08-24T19:03:27;2.00;2.00;1.00
73832;PMS7003;62179;48.444;-4.464;2022-08-24T19:05:52;1.75;1.75;1.00
73832;PMS7003;62179;48.444;-4.464;2022-08-24T19:08:18;3.00;2.00;1.75
73832;PMS7003;62179;48.444;-4.464;2022-08-24T19:10:44;1.00;1.00;1.00
73832;PMS7003;62179;48.444;-4.464;2022-08-24T19:13:11;1.00;1.00;1.00
73832;PMS7003;62179;48.444;-4.464;2022-08-24T19:15:39;1.75;1.00;1.00
73832;PMS7003;62179;48.444;-4.464;2022-08-24T19:18:12;1.50;1.50;0.50
73832;PMS7003;62179;48.444;-4.464;2022-08-24T19:20:40;2.00;2.00;0.25
73832;PMS7003;62179;48.444;-4.464;2022-08-24T19:23:09;2.75;2.75;1.00
73832;PMS7003;62179;48.444;-4.464;2022-08-24T19:25:38;1.50;1.50;1.50
73832;PMS7003;62179;48.444;-4.464;2022-08-24T19:28:07;3.25;2.00;2.00
73832;PMS7003;62179;48.444;-4.464;2022-08-24T19:30:33;1.75;1.25;1.00
73832;PMS7003;62179;48.444;-4.464;2022-08-24T19:32:58;5.50;4.25;3.00
73832;PMS7003;62179;48.444;-4.464;2022-08-24T19:35:25;3.75;3.75;2.75
73832;PMS7003;62179;48.444;-4.464;2022-08-24T19:37:51;5.25;5.25;3.00
73832;PMS7003;62179;48.444;-4.464;2022-08-24T19:40:17;5.00;5.00;4.00
73832;PMS7003;62179;48.444;-4.464;2022-08-24T19:42:45;8.00;5.75;4.00
73832;PMS7003;62179;48.444;-4.464;2022-08-24T19:45:13;9.75;5.75;4.00
73832;PMS7003;62179;48.444;-4.464;2022-08-24T19:48:00;6.25;5.00;4.00
73832;PMS7003;62179;48.444;-4.464;2022-08-24T19:50:25;9.25;8.00;5.00
73832;PMS7003;62179;48.444;-4.464;2022-08-24T19:52:51;7.50;6.75;4.75
73832;PMS7003;62179;48.444;-4.464;2022-08-24T19:55:16;4.50;4.50;3.00
73832;PMS7003;62179;48.444;-4.464;2022-08-24T20:02:46;8.50;6.00;4.00
73832;PMS7003;62179;48.444;-4.464;2022-08-24T20:05:16;6.75;5.25;3.25
73832;PMS7003;62179;48.444;-4.464;2022-08-24T20:07:44;7.25;6.25;5.25
73832;PMS7003;62179;48.444;-4.464;2022-08-24T20:10:10;10.25;10.25;5.50
73832;PMS7003;62179;48.444;-4.464;2022-08-24T20:12:37;6.75;6.00;4.00
73832;PMS7003;62179;48.444;-4.464;2022-08-24T20:15:03;14.00;9.75;4.00
73832;PMS7003;62179;48.444;-4.464;2022-08-24T20:17:29;9.25;8.75;6.25
73832;PMS7003;62179;48.444;-4.464;2022-08-24T20:19:55;16.25;11.25;8.50
73832;PMS7003;62179;48.444;-4.464;2022-08-24T20:22:22;8.75;8.75;6.25
73832;PMS7003;62179;48.444;-4.464;2022-08-24T20:24:47;11.00;11.00;8.00
73832;PMS7003;62179;48.444;-4.464;2022-08-24T20:27:18;8.75;7.50;5.75
73832;PMS7003;62179;48.444;-4.464;2022-08-24T20:29:47;13.00;10.00;5.50
73832;PMS7003;62179;48.444;-4.464;2022-08-24T20:32:12;10.75;9.50;6.00
73832;PMS7003;62179;48.444;-4.464;2022-08-24T20:34:38;8.25;8.00;5.00
73832;PMS7003;62179;48.444;-4.464;2022-08-24T20:37:04;10.00;7.50;5.00
73832;PMS7003;62179;48.444;-4.464;2022-08-24T20:39:29;8.50;7.00;5.50
73832;PMS7003;62179;48.444;-4.464;2022-08-24T20:41:55;10.25;9.25;5.75
73832;PMS7003;62179;48.444;-4.464;2022-08-24T20:44:21;12.25;7.50;6.00
73832;PMS7003;62179;48.444;-4.464;2022-08-24T20:46:46;9.50;8.00;5.25
73832;PMS7003;62179;48.444;-4.464;2022-08-24T20:49:13;5.75;5.75;3.75
73832;PMS7003;62179;48.444;-4.464;2022-08-24T20:51:40;8.75;8.00;5.75
73832;PMS7003;62179;48.444;-4.464;2022-08-24T20:54:05;9.50;8.50;6.00
73832;PMS7003;62179;48.444;-4.464;2022-08-24T20:56:35;11.00;8.50;6.75
73832;PMS7003;62179;48.444;-4.464;2022-08-24T20:59:04;9.75;8.75;6.00
73832;PMS7003;62179;48.444;-4.464;2022-08-24T21:01:35;10.25;10.00;8.00
73832;PMS7003;62179;48.444;-4.464;2022-08-24T21:04:01;10.50;8.50;7.25
73832;PMS7003;62179;48.444;-4.464;2022-08-24T21:06:27;10.75;10.75;6.50
73832;PMS7003;62179;48.444;-4.464;2022-08-24T21:08:53;8.75;8.75;5.00
